Time,TemperatureF,DewpointF,PressureIn,WindDirection,WindDirectionDegrees,WindSpeedMPH,WindSpeedGustMPH,Humidity,HourlyPrecipIn,Conditions,Clouds,dailyrainin,SoftwareType,DateUTC
2013-04-28 00:00:00,49.3,44.6,29.77,West,265,2.0,2.0,84,0.00,OVC,,0.00,WeatherDisplay:10.37,2013-04-27 22:00:00,
2013-04-28 00:05:00,49.3,44.7,29.77,WSW,248,0.0,2.2,84,0.00,,,0.00,WUHU21636XXSP,2013-04-27 22:05:00,
2013-04-28 00:10:00,49.3,44.6,29.76,SW,236,0.0,0.0,84,0.00,OVC,,0.00,WeatherDisplay:10.37,2013-04-27 22:10:00,
2013-04-28 00:15:00,48.9,44.3,29.78,WNW,293,0.4,0.4,84,0.00,,,0.00,WUHU21636XXSP,2013-04-27 22:15:00,
2013-04-28 00:20:00,48.9,44.3,29.77,WNW,292,0.0,0.0,84,0.00,BKN,,0.00,WeatherDisplay:10.37,2013-04-27 22:20:00,
2013-04-28 00:25:00,48.7,44.7,29.77,WNW,293,2.2,2.2,86,0.02,,,0.02,WUHU21636XXSP,2013-04-27 22:25:00,
2013-04-28 00:30:00,48.7,44.7,29.76,WNW,292,2.0,2.0,86,0.02,RA,,0.02,WeatherDisplay:10.37,2013-04-27 22:30:00,
2013-04-28 00:35:00,48.6,44.6,29.76,WNW,293,0.0,2.2,86,0.02,,,0.02,WUHU21636XXSP,2013-04-27 22:35:00,
2013-04-28 00:40:00,48.4,44.7,29.75,WNW,293,0.4,0.4,87,0.02,,,0.02,WUHU21636XXSP,2013-04-27 22:40:00,
2013-04-28 00:45:00,48.4,44.7,29.77,WNW,293,0.0,0.4,87,0.04,,,0.04,WUHU21636XXSP,2013-04-27 22:45:00,
2013-04-28 00:50:00,48.2,44.5,29.77,SE,135,1.1,1.1,87,0.04,,,0.04,WUHU21636XXSP,2013-04-27 22:50:00,
2013-04-28 00:55:00,48.0,44.3,29.77,SE,135,0.9,1.1,87,0.04,,,0.04,WUHU21636XXSP,2013-04-27 22:55:00,
2013-04-28 01:00:00,48.0,44.6,29.76,ESE,113,0.0,1.1,88,0.04,,,0.04,WUHU21636XXSP,2013-04-27 23:00:00,
2013-04-28 01:05:00,47.8,44.4,29.75,SE,135,0.0,0.9,88,0.06,,,0.06,WUHU21636XXSP,2013-04-27 23:05:00,
2013-04-28 01:10:00,47.8,44.4,29.76,WNW,293,1.6,1.6,88,0.06,,,0.06,WUHU21636XXSP,2013-04-27 23:10:00,
2013-04-28 01:15:00,47.8,44.4,29.78,WNW,293,0.0,1.6,88,0.08,,,0.08,WUHU21636XXSP,2013-04-27 23:15:00,
2013-04-28 01:20:00,47.8,44.7,29.78,SW,225,0.0,1.6,89,0.06,,,0.08,WUHU21636XXSP,2013-04-27 23:20:00,
2013-04-28 01:25:00,47.5,44.4,29.78,SW,225,0.0,0.0,89,0.06,,,0.08,WUHU21636XXSP,2013-04-27 23:25:00,
2013-04-28 01:30:00,47.5,44.4,29.78,WNW,293,0.0,0.0,89,0.06,,,0.08,WUHU21636XXSP,2013-04-27 23:30:00,
2013-04-28 01:35:00,47.5,44.4,29.78,West,270,2.0,2.0,89,0.06,,,0.08,WUHU21636XXSP,2013-04-27 23:35:00,
2013-04-28 01:40:00,47.5,44.4,29.78,North,0,2.5,2.5,89,0.04,,,0.08,WUHU21636XXSP,2013-04-27 23:40:00,
2013-04-28 01:45:00,47.3,44.2,29.78,SE,135,0.0,2.5,89,0.04,,,0.08,WUHU21636XXSP,2013-04-27 23:45:00,
2013-04-28 01:50:00,47.3,44.2,29.77,WNW,293,0.0,2.5,89,0.04,,,0.08,WUHU21636XXSP,2013-04-27 23:50:00,
2013-04-28 01:55:00,47.3,44.2,29.77,SSW,203,0.4,0.4,89,0.04,,,0.08,WUHU21636XXSP,2013-04-27 23:55:00,
2013-04-28 02:00:00,47.1,44.0,29.77,NE,45,0.0,0.4,89,0.02,,,0.08,WUHU21636XXSP,2013-04-28 00:00:00,
2013-04-28 02:05:00,47.1,44.0,29.78,NW,315,1.3,1.3,89,0.02,,,0.08,WUHU21636XXSP,2013-04-28 00:05:00,
2013-04-28 02:10:00,47.1,44.0,29.78,NNW,338,1.8,1.8,89,0.00,,,0.08,WUHU21636XXSP,2013-04-28 00:10:00,
2013-04-28 02:15:00,46.9,43.8,29.78,WSW,248,0.0,1.8,89,0.00,,,0.08,WUHU21636XXSP,2013-04-28 00:15:00,
2013-04-28 02:20:00,46.9,43.8,29.77,WNW,293,3.6,3.6,89,0.00,,,0.08,WUHU21636XXSP,2013-04-28 00:20:00,
2013-04-28 02:25:00,46.9,43.8,29.78,SE,135,1.3,3.6,89,0.00,,,0.08,WUHU21636XXSP,2013-04-28 00:25:00,
2013-04-28 02:30:00,46.9,43.8,29.78,SW,225,0.4,3.6,89,0.00,,,0.08,WUHU21636XXSP,2013-04-28 00:30:00,
2013-04-28 02:35:00,46.9,43.8,29.78,WNW,293,0.7,1.3,89,0.00,,,0.08,WUHU21636XXSP,2013-04-28 00:35:00,
2013-04-28 02:40:00,46.9,43.8,29.79,WNW,293,0.0,0.7,89,0.00,,,0.08,WUHU21636XXSP,2013-04-28 00:40:00,
2013-04-28 02:45:00,46.9,43.8,29.79,ESE,113,0.0,0.7,89,0.00,,,0.08,WUHU21636XXSP,2013-04-28 00:45:00,
2013-04-28 02:50:00,46.9,43.8,29.79,West,270,0.0,0.0,89,0.00,,,0.08,WUHU21636XXSP,2013-04-28 00:50:00,
2013-04-28 02:55:00,46.9,43.8,29.79,East,90,1.3,1.3,89,0.00,,,0.08,WUHU21636XXSP,2013-04-28 00:55:00,
2013-04-28 03:00:00,47.1,44.0,29.79,West,270,0.0,1.3,89,0.00,,,0.08,WUHU21636XXSP,2013-04-28 01:00:00,
2013-04-28 03:05:00,47.1,44.0,29.79,WNW,293,0.4,1.3,89,0.00,,,0.08,WUHU21636XXSP,2013-04-28 01:05:00,
2013-04-28 03:10:00,47.1,43.7,29.80,WNW,293,0.4,0.4,88,0.00,,,0.08,WUHU21636XXSP,2013-04-28 01:10:00,
2013-04-28 03:15:00,47.1,44.0,29.80,WNW,293,0.0,0.4,89,0.00,,,0.08,WUHU21636XXSP,2013-04-28 01:15:00,
2013-04-28 03:20:00,47.1,43.7,29.80,SE,135,0.4,0.4,88,0.00,,,0.08,WUHU21636XXSP,2013-04-28 01:20:00,
2013-04-28 03:25:00,47.1,43.7,29.80,WNW,293,0.4,0.4,88,0.00,,,0.08,WUHU21636XXSP,2013-04-28 01:25:00,
2013-04-28 03:30:00,47.1,43.7,29.80,WNW,293,0.0,0.4,88,0.00,,,0.08,WUHU21636XXSP,2013-04-28 01:30:00,
2013-04-28 03:35:00,46.9,43.5,29.80,WNW,293,2.0,2.0,88,0.00,,,0.08,WUHU21636XXSP,2013-04-28 01:35:00,
2013-04-28 03:40:00,46.9,43.5,29.80,WNW,293,2.2,2.2,88,0.00,,,0.08,WUHU21636XXSP,2013-04-28 01:40:00,
2013-04-28 03:45:00,46.9,43.5,29.80,SE,135,0.4,2.2,88,0.00,,,0.08,WUHU21636XXSP,2013-04-28 01:45:00,
2013-04-28 03:50:00,46.9,43.5,29.81,NW,315,0.0,2.2,88,0.00,,,0.08,WUHU21636XXSP,2013-04-28 01:50:00,
2013-04-28 03:55:00,46.9,43.2,29.81,NW,315,0.4,0.4,87,0.00,,,0.08,WUHU21636XXSP,2013-04-28 01:55:00,
2013-04-28 04:00:00,46.9,43.2,29.81,West,270,0.0,0.4,87,0.00,,,0.08,WUHU21636XXSP,2013-04-28 02:00:00,
2013-04-28 04:05:00,46.9,43.2,29.81,WNW,293,0.4,0.4,87,0.00,,,0.08,WUHU21636XXSP,2013-04-28 02:05:00,
2013-04-28 04:10:00,46.9,43.2,29.82,WNW,293,0.0,0.4,87,0.00,,,0.08,WUHU21636XXSP,2013-04-28 02:10:00,
2013-04-28 04:15:00,46.9,43.2,29.81,SW,225,0.0,0.4,87,0.00,,,0.08,WUHU21636XXSP,2013-04-28 02:15:00,
2013-04-28 04:20:00,46.9,43.2,29.82,SW,225,0.0,0.0,87,0.00,,,0.08,WUHU21636XXSP,2013-04-28 02:20:00,
2013-04-28 04:25:00,46.8,43.1,29.82,WNW,293,0.0,0.0,87,0.00,,,0.08,WUHU21636XXSP,2013-04-28 02:25:00,
2013-04-28 04:30:00,46.8,43.1,29.82,SW,225,0.0,0.0,87,0.00,,,0.08,WUHU21636XXSP,2013-04-28 02:30:00,
2013-04-28 04:35:00,46.8,43.1,29.82,WNW,293,2.0,2.0,87,0.00,,,0.08,WUHU21636XXSP,2013-04-28 02:35:00,
2013-04-28 04:40:00,46.8,43.1,29.82,WNW,293,0.0,2.0,87,0.00,,,0.08,WUHU21636XXSP,2013-04-28 02:40:00,
2013-04-28 04:45:00,46.6,42.9,29.82,WNW,293,0.0,2.0,87,0.00,,,0.08,WUHU21636XXSP,2013-04-28 02:45:00,
2013-04-28 04:50:00,46.6,42.9,29.82,WNW,293,0.0,0.0,87,0.00,,,0.08,WUHU21636XXSP,2013-04-28 02:50:00,
2013-04-28 04:55:00,46.6,42.9,29.82,North,0,0.0,0.0,87,0.00,,,0.08,WUHU21636XXSP,2013-04-28 02:55:00,
2013-04-28 05:00:00,46.6,42.9,29.83,West,270,0.0,0.0,87,0.00,,,0.08,WUHU21636XXSP,2013-04-28 03:00:00,
2013-04-28 05:05:00,46.4,42.7,29.83,WNW,293,0.0,0.0,87,0.00,,,0.08,WUHU21636XXSP,2013-04-28 03:05:00,
2013-04-28 05:10:00,46.4,42.7,29.83,West,270,0.0,0.0,87,0.00,,,0.08,WUHU21636XXSP,2013-04-28 03:10:00,
2013-04-28 05:15:00,46.2,42.5,29.83,WNW,293,0.0,0.0,87,0.00,,,0.08,WUHU21636XXSP,2013-04-28 03:15:00,
2013-04-28 05:20:00,46.2,42.5,29.84,WNW,293,0.0,0.0,87,0.00,,,0.08,WUHU21636XXSP,2013-04-28 03:20:00,
2013-04-28 05:25:00,46.2,42.5,29.84,NNW,338,0.0,0.0,87,0.00,,,0.08,WUHU21636XXSP,2013-04-28 03:25:00,
2013-04-28 05:30:00,46.4,42.7,29.84,South,180,0.0,0.0,87,0.00,,,0.08,WUHU21636XXSP,2013-04-28 03:30:00,
2013-04-28 05:35:00,46.2,42.5,29.84,West,270,0.0,0.0,87,0.00,,,0.08,WUHU21636XXSP,2013-04-28 03:35:00,
2013-04-28 05:40:00,46.2,42.5,29.85,WNW,293,0.0,0.0,87,0.00,,,0.08,WUHU21636XXSP,2013-04-28 03:40:00,
2013-04-28 05:45:00,46.2,42.5,29.85,NW,315,0.0,0.0,87,0.00,,,0.08,WUHU21636XXSP,2013-04-28 03:45:00,
2013-04-28 05:50:00,46.2,42.5,29.85,WNW,293,0.0,0.0,87,0.00,,,0.08,WUHU21636XXSP,2013-04-28 03:50:00,
2013-04-28 05:55:00,46.0,42.3,29.85,South,180,0.0,0.0,87,0.00,,,0.08,WUHU21636XXSP,2013-04-28 03:55:00,
2013-04-28 06:00:00,46.0,42.3,29.85,NW,315,0.0,0.0,87,0.00,,,0.08,WUHU21636XXSP,2013-04-28 04:00:00,
2013-04-28 06:05:00,46.0,42.3,29.85,WNW,293,1.8,1.8,87,0.00,,,0.08,WUHU21636XXSP,2013-04-28 04:05:00,
2013-04-28 06:10:00,46.0,42.3,29.85,WNW,293,3.4,3.4,87,0.00,,,0.08,WUHU21636XXSP,2013-04-28 04:10:00,
2013-04-28 06:15:00,46.0,42.0,29.86,NW,315,0.0,3.4,86,0.00,,,0.08,WUHU21636XXSP,2013-04-28 04:15:00,
2013-04-28 06:20:00,46.0,42.0,29.87,WNW,293,0.9,3.4,86,0.00,,,0.08,WUHU21636XXSP,2013-04-28 04:20:00,
2013-04-28 06:25:00,46.0,42.0,29.86,WNW,293,1.1,1.1,86,0.00,,,0.08,WUHU21636XXSP,2013-04-28 04:25:00,
2013-04-28 06:30:00,45.9,41.9,29.87,WNW,293,3.1,3.1,86,0.00,,,0.08,WUHU21636XXSP,2013-04-28 04:30:00,
2013-04-28 06:35:00,45.7,41.7,29.87,WNW,293,1.1,3.1,86,0.00,,,0.08,WUHU21636XXSP,2013-04-28 04:35:00,
2013-04-28 06:40:00,45.7,41.7,29.87,WNW,293,2.2,3.1,86,0.00,,,0.08,WUHU21636XXSP,2013-04-28 04:40:00,
2013-04-28 06:45:00,45.5,41.5,29.88,WNW,293,1.6,2.2,86,0.00,,,0.08,WUHU21636XXSP,2013-04-28 04:45:00,
2013-04-28 06:50:00,45.5,41.5,29.88,NW,315,0.9,2.2,86,0.00,,,0.08,WUHU21636XXSP,2013-04-28 04:50:00,
2013-04-28 06:55:00,45.3,41.3,29.88,WNW,293,0.0,1.6,86,0.00,,,0.08,WUHU21636XXSP,2013-04-28 04:55:00,
2013-04-28 07:00:00,45.3,41.3,29.88,WNW,293,3.8,3.8,86,0.00,,,0.08,WUHU21636XXSP,2013-04-28 05:00:00,
2013-04-28 07:05:00,45.3,41.3,29.89,WNW,293,3.4,3.8,86,0.00,,,0.08,WUHU21636XXSP,2013-04-28 05:05:00,
2013-04-28 07:10:00,45.3,41.3,29.89,East,90,1.8,3.8,86,0.00,,,0.08,WUHU21636XXSP,2013-04-28 05:10:00,
2013-04-28 07:15:00,45.1,41.1,29.89,NW,315,2.2,3.4,86,0.00,,,0.08,WUHU21636XXSP,2013-04-28 05:15:00,
2013-04-28 07:20:00,45.1,41.1,29.89,WNW,293,0.9,2.2,86,0.00,,,0.08,WUHU21636XXSP,2013-04-28 05:20:00,
2013-04-28 07:25:00,45.1,41.1,29.90,NNW,338,0.0,2.2,86,0.00,,,0.08,WUHU21636XXSP,2013-04-28 05:25:00,
2013-04-28 07:30:00,45.0,41.0,29.89,WNW,293,0.0,0.9,86,0.00,,,0.08,WUHU21636XXSP,2013-04-28 05:30:00,
2013-04-28 07:35:00,45.0,41.0,29.90,WNW,293,2.0,2.0,86,0.00,,,0.08,WUHU21636XXSP,2013-04-28 05:35:00,
2013-04-28 07:40:00,44.8,40.6,29.90,ESE,113,2.5,2.5,85,0.00,,,0.08,WUHU21636XXSP,2013-04-28 05:40:00,
2013-04-28 07:45:00,44.8,40.6,29.90,East,90,1.6,2.5,85,0.00,,,0.08,WUHU21636XXSP,2013-04-28 05:45:00,
2013-04-28 07:50:00,44.4,40.2,29.91,WNW,293,1.6,2.5,85,0.00,,,0.08,WUHU21636XXSP,2013-04-28 05:50:00,
2013-04-28 07:55:00,44.4,40.2,29.91,West,270,0.0,1.6,85,0.00,,,0.08,WUHU21636XXSP,2013-04-28 05:55:00,
2013-04-28 08:00:00,44.4,40.2,29.91,ESE,113,0.7,1.6,85,0.00,,,0.08,WUHU21636XXSP,2013-04-28 06:00:00,
2013-04-28 08:05:00,44.4,39.9,29.91,WNW,293,1.8,1.8,84,0.00,,,0.08,WUHU21636XXSP,2013-04-28 06:05:00,
2013-04-28 08:10:00,44.4,39.9,29.91,SSE,158,0.7,1.8,84,0.00,,,0.08,WUHU21636XXSP,2013-04-28 06:10:00,
2013-04-28 08:15:00,44.2,39.7,29.92,NW,315,1.6,1.8,84,0.00,,,0.08,WUHU21636XXSP,2013-04-28 06:15:00,
2013-04-28 08:20:00,44.2,39.7,29.92,WNW,293,2.2,2.2,84,0.00,,,0.08,WUHU21636XXSP,2013-04-28 06:20:00,
2013-04-28 08:25:00,44.2,39.4,29.93,North,0,0.0,2.2,83,0.00,,,0.08,WUHU21636XXSP,2013-04-28 06:25:00,
2013-04-28 08:30:00,44.2,39.4,29.93,SE,135,2.0,2.2,83,0.00,,,0.08,WUHU21636XXSP,2013-04-28 06:30:00,
2013-04-28 08:35:00,44.2,39.4,29.93,WNW,293,1.6,2.0,83,0.00,,,0.08,WUHU21636XXSP,2013-04-28 06:35:00,
2013-04-28 08:40:00,44.2,39.4,29.94,West,270,2.0,2.0,83,0.00,,,0.08,WUHU21636XXSP,2013-04-28 06:40:00,
2013-04-28 08:45:00,44.2,39.4,29.94,NW,315,1.3,2.0,83,0.00,,,0.08,WUHU21636XXSP,2013-04-28 06:45:00,
2013-04-28 08:50:00,44.4,39.6,29.95,WNW,293,1.3,2.0,83,0.00,,,0.08,WUHU21636XXSP,2013-04-28 06:50:00,
2013-04-28 08:55:00,44.4,39.6,29.95,WSW,248,0.0,1.3,83,0.00,,,0.08,WUHU21636XXSP,2013-04-28 06:55:00,
2013-04-28 09:00:00,44.4,39.6,29.95,North,0,0.0,1.3,83,0.00,,,0.08,WUHU21636XXSP,2013-04-28 07:00:00,
2013-04-28 09:05:00,44.4,39.6,29.95,WNW,293,0.7,0.7,83,0.00,,,0.08,WUHU21636XXSP,2013-04-28 07:05:00,
2013-04-28 09:10:00,44.4,39.6,29.96,SE,135,1.6,1.6,83,0.00,,,0.08,WUHU21636XXSP,2013-04-28 07:10:00,
2013-04-28 09:15:00,44.4,39.6,29.96,WNW,293,0.0,1.6,83,0.00,,,0.08,WUHU21636XXSP,2013-04-28 07:15:00,
2013-04-28 09:20:00,44.4,39.6,29.96,SSE,158,2.2,2.2,83,0.00,,,0.08,WUHU21636XXSP,2013-04-28 07:20:00,
2013-04-28 09:25:00,44.4,39.6,29.96,WNW,293,4.0,4.0,83,0.00,,,0.08,WUHU21636XXSP,2013-04-28 07:25:00,
2013-04-28 09:30:00,44.4,39.6,29.96,WNW,293,3.8,4.0,83,0.00,,,0.08,WUHU21636XXSP,2013-04-28 07:30:00,
2013-04-28 09:35:00,44.4,39.3,29.97,NW,315,1.1,4.0,82,0.00,,,0.08,WUHU21636XXSP,2013-04-28 07:35:00,
2013-04-28 09:40:00,44.4,39.3,29.97,WNW,293,0.0,3.8,82,0.00,,,0.08,WUHU21636XXSP,2013-04-28 07:40:00,
2013-04-28 09:45:00,44.8,39.6,29.98,North,0,1.6,1.6,82,0.00,,,0.08,WUHU21636XXSP,2013-04-28 07:45:00,
2013-04-28 09:50:00,45.0,39.8,29.98,NW,315,2.2,2.2,82,0.00,,,0.08,WUHU21636XXSP,2013-04-28 07:50:00,
2013-04-28 09:55:00,45.0,39.8,29.98,NW,315,0.4,2.2,82,0.00,,,0.08,WUHU21636XXSP,2013-04-28 07:55:00,
2013-04-28 10:00:00,45.0,40.1,29.98,WNW,293,0.7,2.2,83,0.00,,,0.08,WUHU21636XXSP,2013-04-28 08:00:00,
2013-04-28 10:05:00,45.0,40.1,29.98,WNW,293,2.2,2.2,83,0.00,,,0.08,WUHU21636XXSP,2013-04-28 08:05:00,
2013-04-28 10:10:00,44.8,39.6,29.98,NNW,338,2.0,2.2,82,0.00,,,0.08,WUHU21636XXSP,2013-04-28 08:10:00,
2013-04-28 10:15:00,44.8,40.0,29.99,SW,225,0.0,2.2,83,0.00,,,0.08,WUHU21636XXSP,2013-04-28 08:15:00,
2013-04-28 10:20:00,44.8,40.0,29.99,SE,135,0.0,2.0,83,0.00,,,0.08,WUHU21636XXSP,2013-04-28 08:20:00,
2013-04-28 10:25:00,45.1,40.2,30.00,WNW,293,1.3,1.3,83,0.00,,,0.08,WUHU21636XXSP,2013-04-28 08:25:00,
2013-04-28 10:30:00,45.1,40.2,30.00,NNW,338,0.4,1.3,83,0.00,,,0.08,WUHU21636XXSP,2013-04-28 08:30:00,
2013-04-28 10:35:00,45.0,39.8,30.01,WNW,293,2.2,2.2,82,0.00,,,0.08,WUHU21636XXSP,2013-04-28 08:35:00,
2013-04-28 10:40:00,44.8,39.6,30.01,North,0,0.7,2.2,82,0.00,,,0.08,WUHU21636XXSP,2013-04-28 08:40:00,
2013-04-28 10:45:00,44.8,39.6,30.01,WNW,293,1.8,2.2,82,0.00,,,0.08,WUHU21636XXSP,2013-04-28 08:45:00,
2013-04-28 10:50:00,44.8,39.3,30.01,WNW,293,1.6,1.8,81,0.00,,,0.08,WUHU21636XXSP,2013-04-28 08:50:00,
2013-04-28 10:55:00,44.6,39.1,30.01,WNW,293,3.1,3.1,81,0.00,,,0.08,WUHU21636XXSP,2013-04-28 08:55:00,
2013-04-28 11:00:00,44.6,39.1,30.01,WNW,293,2.2,3.1,81,0.00,,,0.08,WUHU21636XXSP,2013-04-28 09:00:00,
2013-04-28 11:05:00,44.4,39.3,30.02,East,90,1.3,3.1,82,0.00,,,0.08,WUHU21636XXSP,2013-04-28 09:05:00,
2013-04-28 11:10:00,44.4,39.3,30.02,SW,225,0.9,2.2,82,0.00,,,0.08,WUHU21636XXSP,2013-04-28 09:10:00,
2013-04-28 11:15:00,44.8,39.6,30.02,SE,135,1.8,1.8,82,0.00,,,0.08,WUHU21636XXSP,2013-04-28 09:15:00,
2013-04-28 11:20:00,44.8,39.3,30.02,WNW,293,1.1,1.8,81,0.00,,,0.08,WUHU21636XXSP,2013-04-28 09:20:00,
2013-04-28 11:25:00,45.0,39.5,30.03,NW,315,0.9,1.8,81,0.00,,,0.08,WUHU21636XXSP,2013-04-28 09:25:00,
2013-04-28 11:30:00,45.0,39.5,30.03,ESE,113,0.0,1.1,81,0.00,,,0.08,WUHU21636XXSP,2013-04-28 09:30:00,
2013-04-28 11:35:00,45.0,39.2,30.03,WNW,293,0.0,0.9,80,0.00,,,0.08,WUHU21636XXSP,2013-04-28 09:35:00,
2013-04-28 11:40:00,45.3,39.8,30.03,WNW,293,1.3,1.3,81,0.00,,,0.08,WUHU21636XXSP,2013-04-28 09:40:00,
2013-04-28 11:45:00,45.3,39.5,30.03,WNW,293,4.0,4.0,80,0.00,,,0.08,WUHU21636XXSP,2013-04-28 09:45:00,
2013-04-28 11:50:00,45.5,39.7,30.03,WNW,293,2.0,4.0,80,0.00,,,0.08,WUHU21636XXSP,2013-04-28 09:50:00,
2013-04-28 11:55:00,45.5,39.4,30.03,NW,315,1.6,4.0,79,0.00,,,0.08,WUHU21636XXSP,2013-04-28 09:55:00,
2013-04-28 12:00:00,45.3,39.2,30.03,WNW,293,2.7,2.7,79,0.00,,,0.08,WUHU21636XXSP,2013-04-28 10:00:00,
2013-04-28 12:05:00,45.3,39.5,30.03,NNW,338,0.7,2.7,80,0.00,,,0.08,WUHU21636XXSP,2013-04-28 10:05:00,
2013-04-28 12:10:00,45.3,39.5,30.03,WNW,293,2.2,2.7,80,0.00,,,0.08,WUHU21636XXSP,2013-04-28 10:10:00,
2013-04-28 12:15:00,45.3,39.8,30.03,West,270,0.4,2.2,81,0.00,,,0.08,WUHU21636XXSP,2013-04-28 10:15:00,
2013-04-28 12:20:00,45.3,39.8,30.04,WNW,293,0.0,2.2,81,0.00,,,0.08,WUHU21636XXSP,2013-04-28 10:20:00,
2013-04-28 12:25:00,45.7,39.6,30.04,WNW,293,2.5,2.5,79,0.00,,,0.08,WUHU21636XXSP,2013-04-28 10:25:00,
2013-04-28 12:30:00,45.5,39.4,30.04,North,0,0.0,2.5,79,0.00,,,0.08,WUHU21636XXSP,2013-04-28 10:30:00,
2013-04-28 12:35:00,45.7,39.6,30.04,WNW,293,0.0,2.5,79,0.00,,,0.08,WUHU21636XXSP,2013-04-28 10:35:00,
2013-04-28 12:40:00,46.0,39.6,30.04,SSW,203,0.0,0.0,78,0.00,,,0.10,WUHU21636XXSP,2013-04-28 10:40:00,
2013-04-28 12:45:00,46.0,39.6,30.04,WNW,293,0.9,0.9,78,0.00,,,0.10,WUHU21636XXSP,2013-04-28 10:45:00,
2013-04-28 12:47:00,46.0,39.9,30.04,North,0,0.4,0.9,77,0.00,,,0.08,WUHU21636XXSP,2013-04-28 10:47:00,
2013-04-28 12:50:00,46.4,40.0,30.04,WNW,293,1.3,1.3,78,0.00,,,0.10,WUHU21636XXSP,2013-04-28 10:50:00,
2013-04-28 12:52:00,46.8,39.6,30.04,ESE,112,1.3,2.2,76,0.00,,,0.08,WUHU21636XXSP,2013-04-28 10:52:00,
2013-04-28 12:55:00,46.9,40.1,30.04,WNW,293,2.0,2.0,77,0.00,,,0.10,WUHU21636XXSP,2013-04-28 10:55:00,
2013-04-28 12:57:00,46.8,39.9,30.04,SW,225,0.4,2.2,77,0.00,,,0.08,WUHU21636XXSP,2013-04-28 10:57:00,
2013-04-28 13:00:00,46.9,40.1,30.04,WNW,293,0.9,2.0,77,0.00,,,0.10,WUHU21636XXSP,2013-04-28 11:00:00,
2013-04-28 13:02:00,47.3,40.3,30.04,WNW,292,0.0,2.0,77,0.00,,,0.08,WUHU21636XXSP,2013-04-28 11:02:00,
2013-04-28 13:05:00,47.5,40.4,30.04,WNW,293,2.7,2.7,76,0.00,,,0.10,WUHU21636XXSP,2013-04-28 11:05:00,
2013-04-28 13:10:00,48.0,40.5,30.04,WNW,293,1.6,2.7,75,0.00,,,0.10,WUHU21636XXSP,2013-04-28 11:10:00,
2013-04-28 13:15:00,48.0,40.5,30.05,West,270,0.0,2.7,75,0.00,,,0.10,WUHU21636XXSP,2013-04-28 11:15:00,
2013-04-28 13:20:00,48.0,40.5,30.04,WNW,283,0.0,2.0,75,0.00,OVC,,0.10,WeatherDisplay:10.37,2013-04-28 11:20:00,
2013-04-28 13:25:00,47.8,40.3,30.05,WNW,293,1.3,1.3,75,0.00,,,0.10,WUHU21636XXSP,2013-04-28 11:25:00,
2013-04-28 13:30:00,47.8,40.3,30.04,WNW,287,1.0,1.0,75,0.00,OVC,,0.10,WeatherDisplay:10.37,2013-04-28 11:30:00,
2013-04-28 13:35:00,48.4,40.9,30.05,WNW,293,0.7,1.3,75,0.00,,,0.10,WUHU21636XXSP,2013-04-28 11:35:00,
2013-04-28 13:40:00,48.4,40.8,30.04,SW,232,1.0,1.0,75,0.00,OVC,,0.10,WeatherDisplay:10.37,2013-04-28 11:40:00,
2013-04-28 13:45:00,48.7,40.9,30.06,WNW,293,0.0,2.5,74,0.00,,,0.10,WUHU21636XXSP,2013-04-28 11:45:00,
2013-04-28 13:50:00,48.7,40.8,30.05,WNW,292,0.0,2.0,74,0.00,OVC,,0.10,WeatherDisplay:10.37,2013-04-28 11:50:00,
2013-04-28 13:55:00,49.6,41.7,30.06,West,270,0.0,1.1,74,0.00,,,0.10,WUHU21636XXSP,2013-04-28 11:55:00,
2013-04-28 14:00:00,49.6,41.7,30.05,SSW,204,0.0,1.0,74,0.00,OVC,,0.10,WeatherDisplay:10.37,2013-04-28 12:00:00,
2013-04-28 14:05:00,51.6,42.6,30.05,WNW,293,1.3,1.3,71,0.00,,,0.10,WUHU21636XXSP,2013-04-28 12:05:00,
2013-04-28 14:10:00,51.6,42.5,30.04,SW,235,1.0,1.0,71,0.00,OVC,,0.10,WeatherDisplay:10.37,2013-04-28 12:10:00,
2013-04-28 14:15:00,51.4,41.7,30.05,ENE,68,0.0,1.3,69,0.00,,,0.10,WUHU21636XXSP,2013-04-28 12:15:00,
2013-04-28 14:20:00,51.4,41.6,30.04,North,360,0.0,0.0,69,0.00,OVC,,0.10,WeatherDisplay:10.37,2013-04-28 12:20:00,
2013-04-28 14:25:00,52.0,42.6,30.05,WNW,293,4.0,4.0,70,0.00,,,0.10,WUHU21636XXSP,2013-04-28 12:25:00,
2013-04-28 14:30:00,52.0,42.5,30.04,WNW,297,3.0,4.0,70,0.00,OVC,,0.10,WeatherDisplay:10.37,2013-04-28 12:30:00,
2013-04-28 14:35:00,53.2,42.6,30.05,WNW,293,1.3,4.0,67,0.00,,,0.10,WUHU21636XXSP,2013-04-28 12:35:00,
2013-04-28 14:40:00,53.2,42.6,30.04,WNW,292,1.0,2.0,67,0.00,OVC,,0.10,WeatherDisplay:10.37,2013-04-28 12:40:00,
2013-04-28 14:45:00,55.0,43.6,30.05,WNW,293,3.4,3.4,65,0.00,,,0.10,WUHU21636XXSP,2013-04-28 12:45:00,
2013-04-28 14:50:00,55.0,43.5,30.04,WNW,292,3.0,3.0,65,0.00,BKN,,0.10,WeatherDisplay:10.37,2013-04-28 12:50:00,
2013-04-28 14:55:00,55.0,43.6,30.06,WNW,293,1.1,3.4,65,0.00,,,0.10,WUHU21636XXSP,2013-04-28 12:55:00,
2013-04-28 15:00:00,55.0,43.5,30.05,WNW,292,1.0,1.0,65,0.00,BKN,,0.10,WeatherDisplay:10.37,2013-04-28 13:00:00,
2013-04-28 15:05:00,53.8,43.2,30.06,NW,315,1.1,2.0,67,0.00,,,0.10,WUHU21636XXSP,2013-04-28 13:05:00,
2013-04-28 15:10:00,53.8,43.1,30.05,WNW,300,1.0,2.0,67,0.00,BKN,,0.10,WeatherDisplay:10.37,2013-04-28 13:10:00,
2013-04-28 15:15:00,53.8,43.2,30.06,WNW,293,0.0,1.1,67,0.00,,,0.10,WUHU21636XXSP,2013-04-28 13:15:00,
2013-04-28 15:20:00,53.8,43.1,30.05,WNW,303,0.0,0.0,67,0.00,BKN,,0.10,WeatherDisplay:10.37,2013-04-28 13:20:00,
2013-04-28 15:25:00,53.8,43.6,30.06,West,270,0.7,2.7,68,0.00,,,0.10,WUHU21636XXSP,2013-04-28 13:25:00,
2013-04-28 15:30:00,53.8,43.5,30.05,West,270,1.0,3.0,68,0.00,BKN,,0.10,WeatherDisplay:10.37,2013-04-28 13:30:00,
2013-04-28 15:35:00,52.7,42.6,30.05,ESE,113,1.6,1.6,68,0.00,,,0.10,WUHU21636XXSP,2013-04-28 13:35:00,
2013-04-28 15:40:00,52.7,42.4,30.04,ESE,112,1.0,2.0,68,0.00,BKN,,0.10,WeatherDisplay:10.37,2013-04-28 13:40:00,
2013-04-28 15:45:00,53.2,43.0,30.06,WNW,293,0.0,1.6,68,0.00,,,0.10,WUHU21636XXSP,2013-04-28 13:45:00,
2013-04-28 15:50:00,53.2,42.9,30.05,West,279,0.0,0.0,68,0.00,BKN,,0.10,WeatherDisplay:10.37,2013-04-28 13:50:00,
2013-04-28 15:55:00,53.4,43.2,30.06,WNW,293,1.3,1.3,68,0.00,,,0.10,WUHU21636XXSP,2013-04-28 13:55:00,
2013-04-28 16:00:00,53.4,43.1,30.05,WSW,242,1.0,1.0,68,0.00,BKN,,0.10,WeatherDisplay:10.37,2013-04-28 14:00:00,
2013-04-28 16:05:00,53.4,43.2,30.05,NW,315,0.4,2.2,68,0.00,,,0.10,WUHU21636XXSP,2013-04-28 14:05:00,
2013-04-28 16:10:00,53.4,43.1,30.04,NW,315,0.0,2.0,68,0.00,BKN,,0.10,WeatherDisplay:10.37,2013-04-28 14:10:00,
2013-04-28 16:15:00,54.1,43.1,30.05,WNW,293,0.0,1.6,66,0.00,,,0.10,WUHU21636XXSP,2013-04-28 14:15:00,
2013-04-28 16:20:00,54.1,43.0,30.04,WNW,292,0.0,2.0,66,0.00,BKN,,0.10,WeatherDisplay:10.37,2013-04-28 14:20:00,
2013-04-28 16:25:00,55.6,44.1,30.04,West,270,0.0,1.1,65,0.00,,,0.10,WUHU21636XXSP,2013-04-28 14:25:00,
2013-04-28 16:30:00,55.6,44.0,30.03,West,270,0.0,1.0,65,0.00,BKN,,0.10,WeatherDisplay:10.37,2013-04-28 14:30:00,
2013-04-28 16:35:00,54.7,43.7,30.05,ESE,113,1.1,1.1,66,0.00,,,0.10,WUHU21636XXSP,2013-04-28 14:35:00,
2013-04-28 16:40:00,54.7,43.5,30.04,ESE,122,1.0,1.0,66,0.00,BKN,,0.10,WeatherDisplay:10.37,2013-04-28 14:40:00,
2013-04-28 16:45:00,55.0,43.6,30.06,WNW,293,1.6,1.6,65,0.00,,,0.10,WUHU21636XXSP,2013-04-28 14:45:00,
2013-04-28 16:50:00,55.0,43.5,30.05,WNW,292,1.0,2.0,65,0.00,BKN,,0.10,WeatherDisplay:10.37,2013-04-28 14:50:00,
2013-04-28 16:55:00,54.7,43.3,30.06,WSW,248,0.0,1.6,65,0.00,,,0.10,WUHU21636XXSP,2013-04-28 14:55:00,
2013-04-28 17:00:00,54.7,43.1,30.05,West,259,0.0,0.0,65,0.00,BKN,,0.10,WeatherDisplay:10.37,2013-04-28 15:00:00,
2013-04-28 17:05:00,54.1,43.5,30.06,WNW,293,0.0,2.0,67,0.00,,,0.10,WUHU21636XXSP,2013-04-28 15:05:00,
2013-04-28 17:10:00,54.1,43.4,30.05,WNW,292,0.0,2.0,67,0.00,BKN,,0.10,WeatherDisplay:10.37,2013-04-28 15:10:00,
2013-04-28 17:15:00,54.0,43.4,30.06,WNW,293,0.0,1.6,67,0.00,,,0.10,WUHU21636XXSP,2013-04-28 15:15:00,
2013-04-28 17:20:00,54.0,43.2,30.05,WNW,292,0.0,2.0,67,0.00,OVC,,0.10,WeatherDisplay:10.37,2013-04-28 15:20:00,
2013-04-28 17:25:00,53.8,43.2,30.06,WNW,293,1.3,1.3,67,0.00,,,0.10,WUHU21636XXSP,2013-04-28 15:25:00,
2013-04-28 17:30:00,53.8,43.1,30.05,WNW,282,1.0,1.0,67,0.00,OVC,,0.10,WeatherDisplay:10.37,2013-04-28 15:30:00,
2013-04-28 17:35:00,54.0,43.4,30.06,West,270,0.0,1.3,67,0.00,,,0.10,WUHU21636XXSP,2013-04-28 15:35:00,
2013-04-28 17:40:00,54.0,43.2,30.05,SW,225,0.0,0.0,67,0.00,OVC,,0.10,WeatherDisplay:10.37,2013-04-28 15:40:00,
2013-04-28 17:45:00,53.8,42.8,30.06,West,270,0.0,0.0,66,0.00,,,0.10,WUHU21636XXSP,2013-04-28 15:45:00,
2013-04-28 17:50:00,53.8,42.7,30.05,West,270,0.0,0.0,66,0.00,OVC,,0.10,WeatherDisplay:10.37,2013-04-28 15:50:00,
2013-04-28 17:55:00,54.1,43.5,30.06,SW,225,0.0,0.0,67,0.00,,,0.10,WUHU21636XXSP,2013-04-28 15:55:00,
2013-04-28 18:00:00,54.1,43.4,30.05,WSW,247,0.0,0.0,67,0.00,OVC,,0.10,WeatherDisplay:10.37,2013-04-28 16:00:00,
2013-04-28 18:05:00,54.0,43.0,30.06,WNW,293,0.0,0.0,66,0.00,,,0.10,WUHU21636XXSP,2013-04-28 16:05:00,
2013-04-28 18:10:00,54.0,42.9,30.05,WNW,292,0.0,0.0,66,0.00,OVC,,0.10,WeatherDisplay:10.37,2013-04-28 16:10:00,
2013-04-28 18:15:00,53.8,43.6,30.06,West,270,0.0,0.0,68,0.00,,,0.10,WUHU21636XXSP,2013-04-28 16:15:00,
2013-04-28 18:20:00,53.8,43.5,30.05,West,281,0.0,0.0,68,0.00,OVC,,0.10,WeatherDisplay:10.37,2013-04-28 16:20:00,
2013-04-28 18:25:00,53.6,43.4,30.06,ESE,113,0.0,0.0,68,0.00,,,0.10,WUHU21636XXSP,2013-04-28 16:25:00,
2013-04-28 18:30:00,53.6,43.3,30.05,SE,146,0.0,0.0,68,0.00,OVC,,0.10,WeatherDisplay:10.37,2013-04-28 16:30:00,
2013-04-28 18:35:00,53.4,43.2,30.06,SE,135,1.6,1.6,68,0.00,,,0.10,WUHU21636XXSP,2013-04-28 16:35:00,
2013-04-28 18:40:00,53.4,43.1,30.05,SE,135,1.0,2.0,68,0.00,OVC,,0.10,WeatherDisplay:10.37,2013-04-28 16:40:00,
2013-04-28 18:45:00,53.2,43.4,30.06,SE,135,0.0,1.6,69,0.00,,,0.10,WUHU21636XXSP,2013-04-28 16:45:00,
2013-04-28 18:50:00,53.2,43.3,30.05,SE,135,0.0,2.0,69,0.00,OVC,,0.10,WeatherDisplay:10.37,2013-04-28 16:50:00,
2013-04-28 18:55:00,53.2,43.0,30.05,WNW,293,0.0,0.0,68,0.00,,,0.10,WUHU21636XXSP,2013-04-28 16:55:00,
2013-04-28 19:00:00,53.2,42.9,30.04,WSW,258,0.0,0.0,68,0.00,OVC,,0.10,WeatherDisplay:10.37,2013-04-28 17:00:00,
2013-04-28 19:05:00,53.2,43.4,30.06,WNW,293,0.0,0.0,69,0.00,,,0.10,WUHU21636XXSP,2013-04-28 17:05:00,
2013-04-28 19:10:00,53.2,43.3,30.05,WNW,292,0.0,0.0,69,0.00,OVC,,0.10,WeatherDisplay:10.37,2013-04-28 17:10:00,
2013-04-28 19:15:00,53.6,43.4,30.05,WNW,293,0.0,0.0,68,0.00,,,0.10,WUHU21636XXSP,2013-04-28 17:15:00,
2013-04-28 19:20:00,53.6,43.3,30.04,WNW,292,0.0,0.0,68,0.00,BKN,,0.10,WeatherDisplay:10.37,2013-04-28 17:20:00,
2013-04-28 19:25:00,53.2,43.4,30.05,NW,315,0.0,0.0,69,0.00,,,0.10,WUHU21636XXSP,2013-04-28 17:25:00,
2013-04-28 19:30:00,53.2,43.3,30.04,SW,225,0.0,0.0,69,0.00,BKN,,0.10,WeatherDisplay:10.37,2013-04-28 17:30:00,
2013-04-28 19:35:00,53.2,43.4,30.05,WNW,293,0.0,0.0,69,0.00,,,0.10,WUHU21636XXSP,2013-04-28 17:35:00,
2013-04-28 19:40:00,53.2,43.3,30.04,WNW,303,0.0,0.0,69,0.00,BKN,,0.10,WeatherDisplay:10.37,2013-04-28 17:40:00,
2013-04-28 19:45:00,53.2,43.8,30.05,SE,135,0.0,1.1,70,0.00,,,0.10,WUHU21636XXSP,2013-04-28 17:45:00,
2013-04-28 19:50:00,53.2,43.7,30.04,SSW,209,0.0,1.0,70,0.00,BKN,,0.10,WeatherDisplay:10.37,2013-04-28 17:50:00,
2013-04-28 19:55:00,52.9,43.5,30.05,SE,135,0.0,0.0,70,0.00,,,0.10,WUHU21636XXSP,2013-04-28 17:55:00,
2013-04-28 20:00:00,52.9,43.4,30.04,ESE,123,0.0,0.0,70,0.00,BKN,,0.10,WeatherDisplay:10.37,2013-04-28 18:00:00,
2013-04-28 20:05:00,52.5,43.1,30.05,WNW,293,0.0,0.0,70,0.00,,,0.10,WUHU21636XXSP,2013-04-28 18:05:00,
2013-04-28 20:10:00,52.5,43.0,30.04,WNW,292,0.0,0.0,70,0.00,BKN,,0.10,WeatherDisplay:10.37,2013-04-28 18:10:00,
2013-04-28 20:15:00,52.2,43.2,30.06,WNW,293,0.0,0.0,71,0.00,,,0.10,WUHU21636XXSP,2013-04-28 18:15:00,
2013-04-28 20:20:00,52.2,43.0,30.05,WNW,292,0.0,0.0,71,0.00,BKN,,0.10,WeatherDisplay:10.37,2013-04-28 18:20:00,
2013-04-28 20:25:00,52.2,43.5,30.06,WNW,293,0.0,0.0,72,0.00,,,0.10,WUHU21636XXSP,2013-04-28 18:25:00,
2013-04-28 20:30:00,52.2,43.4,30.05,WNW,292,0.0,0.0,72,0.00,BKN,,0.10,WeatherDisplay:10.37,2013-04-28 18:30:00,
2013-04-28 20:35:00,52.0,43.4,30.06,WNW,293,0.0,0.0,72,0.00,,,0.10,WUHU21636XXSP,2013-04-28 18:35:00,
2013-04-28 20:40:00,52.0,43.2,30.05,WNW,292,0.0,0.0,72,0.00,BKN,,0.10,WeatherDisplay:10.37,2013-04-28 18:40:00,
2013-04-28 20:45:00,51.6,43.3,30.06,WNW,293,0.0,0.7,73,0.00,,,0.10,WUHU21636XXSP,2013-04-28 18:45:00,
2013-04-28 20:50:00,51.6,43.2,30.05,WNW,292,0.0,1.0,73,0.00,BKN,,0.10,WeatherDisplay:10.37,2013-04-28 18:50:00,
2013-04-28 20:55:00,51.6,43.3,30.06,WNW,293,0.0,0.0,73,0.00,,,0.10,WUHU21636XXSP,2013-04-28 18:55:00,
2013-04-28 21:00:00,51.6,43.2,30.05,WNW,292,0.0,0.0,73,0.00,BKN,,0.10,WeatherDisplay:10.37,2013-04-28 19:00:00,
2013-04-28 21:05:00,51.4,43.1,30.07,WNW,293,1.3,1.3,73,0.00,,,0.10,WUHU21636XXSP,2013-04-28 19:05:00,
2013-04-28 21:10:00,51.4,43.1,30.06,WNW,292,1.0,1.0,73,0.00,BKN,,0.10,WeatherDisplay:10.37,2013-04-28 19:10:00,
2013-04-28 21:15:00,51.4,43.5,30.07,NW,315,0.0,1.3,74,0.00,,,0.10,WUHU21636XXSP,2013-04-28 19:15:00,
2013-04-28 21:20:00,51.4,43.4,30.06,NW,315,0.0,0.0,74,0.00,BKN,,0.10,WeatherDisplay:10.37,2013-04-28 19:20:00,
2013-04-28 21:25:00,51.4,43.5,30.07,NW,315,0.0,0.0,74,0.00,,,0.10,WUHU21636XXSP,2013-04-28 19:25:00,
2013-04-28 21:30:00,51.4,43.4,30.06,NW,315,0.0,0.0,74,0.00,BKN,,0.10,WeatherDisplay:10.37,2013-04-28 19:30:00,
2013-04-28 21:35:00,51.3,43.4,30.07,NW,315,0.0,0.0,74,0.00,,,0.10,WUHU21636XXSP,2013-04-28 19:35:00,
2013-04-28 21:40:00,51.3,43.3,30.06,NW,315,0.0,0.0,74,0.00,BKN,,0.10,WeatherDisplay:10.37,2013-04-28 19:40:00,
2013-04-28 21:45:00,51.1,43.5,30.07,NW,315,0.0,0.0,75,0.00,,,0.10,WUHU21636XXSP,2013-04-28 19:45:00,
2013-04-28 21:50:00,51.1,43.4,30.06,NW,315,0.0,0.0,75,0.00,BKN,,0.10,WeatherDisplay:10.37,2013-04-28 19:50:00,
2013-04-28 21:55:00,51.1,43.5,30.06,NW,315,0.0,0.0,75,0.00,,,0.10,WUHU21636XXSP,2013-04-28 19:55:00,
2013-04-28 22:00:00,51.1,43.4,30.05,NW,315,0.0,0.0,75,0.00,BKN,,0.10,WeatherDisplay:10.37,2013-04-28 20:00:00,
2013-04-28 22:05:00,51.3,44.1,30.06,NW,315,0.0,0.0,76,0.00,,,0.10,WUHU21636XXSP,2013-04-28 20:05:00,
2013-04-28 22:10:00,51.3,44.0,30.05,NW,315,0.0,0.0,76,0.00,BKN,,0.10,WeatherDisplay:10.37,2013-04-28 20:10:00,
2013-04-28 22:15:00,51.3,44.1,30.06,NW,315,0.0,0.0,76,0.00,,,0.10,WUHU21636XXSP,2013-04-28 20:15:00,
2013-04-28 22:20:00,51.4,44.2,30.06,NW,315,0.0,0.0,76,0.00,,,0.10,WUHU21636XXSP,2013-04-28 20:20:00,
2013-04-28 22:25:00,51.4,44.2,30.06,NW,315,0.0,0.0,76,0.00,,,0.10,WUHU21636XXSP,2013-04-28 20:25:00,
2013-04-28 22:30:00,51.4,44.5,30.07,South,180,0.0,0.0,77,0.00,,,0.10,WUHU21636XXSP,2013-04-28 20:30:00,
2013-04-28 22:35:00,51.4,44.5,30.07,SSW,203,0.0,0.0,77,0.00,,,0.10,WUHU21636XXSP,2013-04-28 20:35:00,
2013-04-28 22:40:00,51.4,44.5,30.06,SW,225,0.0,0.0,77,0.00,,,0.10,WUHU21636XXSP,2013-04-28 20:40:00,
2013-04-28 22:45:00,51.4,44.2,30.06,SE,135,0.0,0.0,76,0.00,,,0.10,WUHU21636XXSP,2013-04-28 20:45:00,
2013-04-28 22:50:00,51.4,44.2,30.06,SE,135,0.0,0.0,76,0.00,,,0.10,WUHU21636XXSP,2013-04-28 20:50:00,
2013-04-28 22:55:00,51.4,44.2,30.06,SE,135,0.0,0.0,76,0.00,,,0.10,WUHU21636XXSP,2013-04-28 20:55:00,
2013-04-28 23:00:00,51.4,44.2,30.06,SE,135,0.0,0.0,76,0.00,,,0.10,WUHU21636XXSP,2013-04-28 21:00:00,
2013-04-28 23:05:00,51.4,44.2,30.07,SE,135,0.0,0.0,76,0.00,,,0.10,WUHU21636XXSP,2013-04-28 21:05:00,
2013-04-28 23:10:00,51.4,44.2,30.06,SE,135,0.0,0.0,76,0.00,,,0.10,WUHU21636XXSP,2013-04-28 21:10:00,
2013-04-28 23:15:00,51.4,44.5,30.07,ESE,113,0.0,0.0,77,0.00,,,0.10,WUHU21636XXSP,2013-04-28 21:15:00,
2013-04-28 23:20:00,51.4,44.5,30.06,ESE,113,0.0,0.0,77,0.00,,,0.10,WUHU21636XXSP,2013-04-28 21:20:00,
2013-04-28 23:25:00,51.4,44.5,30.06,SE,135,0.0,0.0,77,0.00,,,0.10,WUHU21636XXSP,2013-04-28 21:25:00,
2013-04-28 23:30:00,51.3,44.4,30.06,SE,135,0.0,0.0,77,0.00,,,0.10,WUHU21636XXSP,2013-04-28 21:30:00,
2013-04-28 23:35:00,51.3,44.4,30.06,SE,135,0.0,0.0,77,0.00,,,0.10,WUHU21636XXSP,2013-04-28 21:35:00,
2013-04-28 23:40:00,51.1,44.2,30.06,SE,135,0.0,0.0,77,0.00,,,0.10,WUHU21636XXSP,2013-04-28 21:40:00,
2013-04-28 23:45:00,51.1,44.2,30.06,SE,135,0.0,0.0,77,0.00,,,0.10,WUHU21636XXSP,2013-04-28 21:45:00,
2013-04-28 23:50:00,51.1,44.2,30.06,SE,135,0.0,0.0,77,0.00,,,0.10,WUHU21636XXSP,2013-04-28 21:50:00,
2013-04-28 23:55:00,51.1,44.2,30.06,SE,135,0.0,0.0,77,0.00,,,0.10,WUHU21636XXSP,2013-04-28 21:55:00,